sensor_id;sensor_type;location;lat;lon;timestamp;P1;durP1;ratioP1;P2;durP2;ratioP2
48911;SDS011;34722;52.108;5.044;2023-07-13T00:02:25;16.02;;;3.55;;
48911;SDS011;34722;52.108;5.044;2023-07-13T00:04:54;13.60;;;3.03;;
48911;SDS011;34722;52.108;5.044;2023-07-13T00:07:21;29.50;;;7.15;;
48911;SDS011;34722;52.108;5.044;2023-07-13T00:09:49;23.30;;;3.90;;
48911;SDS011;34722;52.108;5.044;2023-07-13T02:16:08;12.80;;;4.13;;
48911;SDS011;34722;52.108;5.044;2023-07-13T02:19:08;14.75;;;3.65;;
48911;SDS011;34722;52.108;5.044;2023-07-13T02:22:10;17.08;;;4.15;;
48911;SDS011;34722;52.108;5.044;2023-07-13T02:24:57;13.73;;;4.45;;
48911;SDS011;34722;52.108;5.044;2023-07-13T03:30:41;17.17;;;4.03;;
48911;SDS011;34722;52.108;5.044;2023-07-13T03:33:50;9.15;;;3.70;;
48911;SDS011;34722;52.108;5.044;2023-07-13T03:36:37;15.65;;;3.83;;
48911;SDS011;34722;52.108;5.044;2023-07-13T03:39:14;13.40;;;4.05;;
48911;SDS011;34722;52.108;5.044;2023-07-13T03:48:46;15.20;;;4.40;;
48911;SDS011;34722;52.108;5.044;2023-07-13T03:55:10;25.83;;;5.30;;
48911;SDS011;34722;52.108;5.044;2023-07-13T03:57:47;15.50;;;4.57;;
48911;SDS011;34722;52.108;5.044;2023-07-13T04:00:25;21.17;;;7.65;;
48911;SDS011;34722;52.108;5.044;2023-07-13T04:06:42;17.17;;;5.63;;
48911;SDS011;34722;52.108;5.044;2023-07-13T04:15:33;16.33;;;4.55;;
48911;SDS011;34722;52.108;5.044;2023-07-13T04:31:42;22.42;;;6.70;;
48911;SDS011;34722;52.108;5.044;2023-07-13T04:34:30;24.63;;;6.70;;
48911;SDS011;34722;52.108;5.044;2023-07-13T04:37:11;24.38;;;6.25;;
48911;SDS011;34722;52.108;5.044;2023-07-13T04:43:49;23.58;;;7.57;;
48911;SDS011;34722;52.108;5.044;2023-07-13T04:49:59;26.35;;;7.65;;
48911;SDS011;34722;52.108;5.044;2023-07-13T04:52:54;19.13;;;6.72;;
48911;SDS011;34722;52.108;5.044;2023-07-13T04:55:43;18.77;;;7.03;;
48911;SDS011;34722;52.108;5.044;2023-07-13T05:50:46;22.60;;;7.35;;
48911;SDS011;34722;52.108;5.044;2023-07-13T05:58:19;15.88;;;6.38;;
48911;SDS011;34722;52.108;5.044;2023-07-13T06:04:41;18.42;;;7.25;;
48911;SDS011;34722;52.108;5.044;2023-07-13T07:28:33;18.25;;;7.28;;
48911;SDS011;34722;52.108;5.044;2023-07-13T07:31:20;18.17;;;6.72;;
48911;SDS011;34722;52.108;5.044;2023-07-13T07:33:47;15.57;;;6.30;;
48911;SDS011;34722;52.108;5.044;2023-07-13T07:36:15;14.40;;;6.50;;
48911;SDS011;34722;52.108;5.044;2023-07-13T07:38:44;8.88;;;5.65;;
48911;SDS011;34722;52.108;5.044;2023-07-13T07:43:47;23.63;;;6.70;;
48911;SDS011;34722;52.108;5.044;2023-07-13T07:46:16;9.13;;;5.78;;
48911;SDS011;34722;52.108;5.044;2023-07-13T07:48:49;15.13;;;4.78;;
48911;SDS011;34722;52.108;5.044;2023-07-13T07:51:23;11.23;;;5.57;;
48911;SDS011;34722;52.108;5.044;2023-07-13T07:54:28;11.60;;;4.93;;
48911;SDS011;34722;52.108;5.044;2023-07-13T07:57:19;12.13;;;5.13;;
48911;SDS011;34722;52.108;5.044;2023-07-13T08:00:13;11.48;;;5.28;;
48911;SDS011;34722;52.108;5.044;2023-07-13T08:02:57;12.35;;;4.95;;
48911;SDS011;34722;52.108;5.044;2023-07-13T08:05:35;13.68;;;6.20;;
48911;SDS011;34722;52.108;5.044;2023-07-13T09:18:44;14.10;;;4.85;;
48911;SDS011;34722;52.108;5.044;2023-07-13T09:21:14;11.70;;;5.13;;
48911;SDS011;34722;52.108;5.044;2023-07-13T09:26:19;8.75;;;4.32;;
48911;SDS011;34722;52.108;5.044;2023-07-13T09:28:48;4.93;;;3.50;;
48911;SDS011;34722;52.108;5.044;2023-07-13T09:34:09;6.00;;;3.85;;
48911;SDS011;34722;52.108;5.044;2023-07-13T09:36:37;6.00;;;3.85;;
48911;SDS011;34722;52.108;5.044;2023-07-13T09:39:14;7.72;;;4.20;;
48911;SDS011;34722;52.108;5.044;2023-07-13T09:44:36;6.90;;;3.85;;
48911;SDS011;34722;52.108;5.044;2023-07-13T09:47:16;10.13;;;3.08;;
48911;SDS011;34722;52.108;5.044;2023-07-13T09:55:12;12.82;;;3.85;;
48911;SDS011;34722;52.108;5.044;2023-07-13T09:57:55;8.48;;;3.75;;
48911;SDS011;34722;52.108;5.044;2023-07-13T10:00:23;7.57;;;3.90;;
48911;SDS011;34722;52.108;5.044;2023-07-13T10:05:48;8.48;;;4.40;;
48911;SDS011;34722;52.108;5.044;2023-07-13T10:08:20;11.02;;;4.40;;
48911;SDS011;34722;52.108;5.044;2023-07-13T10:16:37;11.57;;;4.53;;
48911;SDS011;34722;52.108;5.044;2023-07-13T10:21:46;6.93;;;4.10;;
48911;SDS011;34722;52.108;5.044;2023-07-13T10:24:31;7.40;;;3.60;;
48911;SDS011;34722;52.108;5.044;2023-07-13T10:27:20;7.60;;;3.85;;
48911;SDS011;34722;52.108;5.044;2023-07-13T10:30:09;9.65;;;3.40;;
48911;SDS011;34722;52.108;5.044;2023-07-13T10:32:57;6.68;;;3.63;;
48911;SDS011;34722;52.108;5.044;2023-07-13T10:35:27;5.57;;;3.45;;
48911;SDS011;34722;52.108;5.044;2023-07-13T10:37:57;6.95;;;3.10;;
48911;SDS011;34722;52.108;5.044;2023-07-13T10:46:10;6.78;;;3.03;;
48911;SDS011;34722;52.108;5.044;2023-07-13T10:48:38;9.30;;;3.42;;
48911;SDS011;34722;52.108;5.044;2023-07-13T10:51:17;5.15;;;3.60;;
48911;SDS011;34722;52.108;5.044;2023-07-13T10:54:33;7.03;;;3.90;;
48911;SDS011;34722;52.108;5.044;2023-07-13T10:56:46;9.30;;;3.83;;
48911;SDS011;34722;52.108;5.044;2023-07-13T10:59:24;8.20;;;4.15;;
48911;SDS011;34722;52.108;5.044;2023-07-13T11:04:45;4.50;;;3.80;;
48911;SDS011;34722;52.108;5.044;2023-07-13T11:07:20;10.25;;;4.15;;
48911;SDS011;34722;52.108;5.044;2023-07-13T11:09:54;6.67;;;3.90;;
48911;SDS011;34722;52.108;5.044;2023-07-13T11:25:29;7.53;;;3.78;;
48911;SDS011;34722;52.108;5.044;2023-07-13T11:36:30;14.65;;;4.25;;
48911;SDS011;34722;52.108;5.044;2023-07-13T11:39:12;7.22;;;4.88;;
48911;SDS011;34722;52.108;5.044;2023-07-13T11:42:01;7.27;;;3.73;;
48911;SDS011;34722;52.108;5.044;2023-07-13T11:44:30;7.00;;;3.88;;
48911;SDS011;34722;52.108;5.044;2023-07-13T11:46:59;7.15;;;3.47;;
48911;SDS011;34722;52.108;5.044;2023-07-13T11:49:41;8.25;;;3.72;;
48911;SDS011;34722;52.108;5.044;2023-07-13T11:52:17;7.50;;;3.53;;
48911;SDS011;34722;52.108;5.044;2023-07-13T11:55:13;8.70;;;2.83;;
48911;SDS011;34722;52.108;5.044;2023-07-13T11:57:45;8.65;;;3.38;;
48911;SDS011;34722;52.108;5.044;2023-07-13T12:00:29;5.00;;;3.10;;
48911;SDS011;34722;52.108;5.044;2023-07-13T12:05:35;5.35;;;3.05;;
48911;SDS011;34722;52.108;5.044;2023-07-13T12:08:20;7.22;;;3.20;;
48911;SDS011;34722;52.108;5.044;2023-07-13T12:10:47;8.23;;;4.43;;
48911;SDS011;34722;52.108;5.044;2023-07-13T12:13:21;6.75;;;3.67;;
48911;SDS011;34722;52.108;5.044;2023-07-13T12:15:51;6.20;;;3.35;;
48911;SDS011;34722;52.108;5.044;2023-07-13T12:21:33;7.45;;;3.22;;
48911;SDS011;34722;52.108;5.044;2023-07-13T12:24:22;7.45;;;3.65;;
48911;SDS011;34722;52.108;5.044;2023-07-13T12:27:05;6.28;;;3.15;;
48911;SDS011;34722;52.108;5.044;2023-07-13T12:29:48;7.80;;;3.35;;
48911;SDS011;34722;52.108;5.044;2023-07-13T12:32:26;5.45;;;3.25;;
48911;SDS011;34722;52.108;5.044;2023-07-13T12:34:54;6.90;;;3.50;;
48911;SDS011;34722;52.108;5.044;2023-07-13T12:37:21;6.03;;;3.10;;
48911;SDS011;34722;52.108;5.044;2023-07-13T12:39:48;4.60;;;2.72;;
48911;SDS011;34722;52.108;5.044;2023-07-13T12:42:26;4.45;;;3.50;;
48911;SDS011;34722;52.108;5.044;2023-07-13T12:44:58;4.65;;;3.05;;
48911;SDS011;34722;52.108;5.044;2023-07-13T12:47:55;4.55;;;3.13;;
48911;SDS011;34722;52.108;5.044;2023-07-13T12:50:30;6.70;;;3.30;;
48911;SDS011;34722;52.108;5.044;2023-07-13T12:53:03;6.47;;;3.53;;
48911;SDS011;34722;52.108;5.044;2023-07-13T12:55:32;11.35;;;3.33;;
48911;SDS011;34722;52.108;5.044;2023-07-13T12:58:21;5.00;;;3.17;;
48911;SDS011;34722;52.108;5.044;2023-07-13T13:01:27;6.55;;;3.53;;
48911;SDS011;34722;52.108;5.044;2023-07-13T13:03:54;4.38;;;2.80;;
48911;SDS011;34722;52.108;5.044;2023-07-13T13:06:26;7.40;;;3.15;;
48911;SDS011;34722;52.108;5.044;2023-07-13T13:08:56;5.07;;;3.65;;
48911;SDS011;34722;52.108;5.044;2023-07-13T13:11:23;6.97;;;3.00;;
48911;SDS011;34722;52.108;5.044;2023-07-13T13:13:52;4.90;;;3.60;;
48911;SDS011;34722;52.108;5.044;2023-07-13T13:16:21;6.78;;;3.70;;
48911;SDS011;34722;52.108;5.044;2023-07-13T13:18:57;4.63;;;3.67;;
48911;SDS011;34722;52.108;5.044;2023-07-13T13:21:27;8.13;;;4.63;;
48911;SDS011;34722;52.108;5.044;2023-07-13T13:23:53;4.35;;;3.22;;
48911;SDS011;34722;52.108;5.044;2023-07-13T13:26:19;8.15;;;3.38;;
48911;SDS011;34722;52.108;5.044;2023-07-13T13:28:46;7.60;;;3.40;;
48911;SDS011;34722;52.108;5.044;2023-07-13T13:31:13;7.32;;;3.08;;
48911;SDS011;34722;52.108;5.044;2023-07-13T13:33:43;6.30;;;3.30;;
48911;SDS011;34722;52.108;5.044;2023-07-13T13:36:18;4.20;;;3.40;;
48911;SDS011;34722;52.108;5.044;2023-07-13T13:38:45;6.43;;;3.55;;
48911;SDS011;34722;52.108;5.044;2023-07-13T13:41:12;8.15;;;3.63;;
48911;SDS011;34722;52.108;5.044;2023-07-13T13:43:40;6.45;;;3.60;;
48911;SDS011;34722;52.108;5.044;2023-07-13T13:46:25;7.97;;;3.20;;
48911;SDS011;34722;52.108;5.044;2023-07-13T13:48:53;7.72;;;3.72;;
48911;SDS011;34722;52.108;5.044;2023-07-13T13:51:22;7.07;;;3.03;;
48911;SDS011;34722;52.108;5.044;2023-07-13T13:53:49;4.45;;;2.90;;
48911;SDS011;34722;52.108;5.044;2023-07-13T13:56:17;9.53;;;3.33;;
48911;SDS011;34722;52.108;5.044;2023-07-13T13:58:47;3.58;;;2.92;;
48911;SDS011;34722;52.108;5.044;2023-07-13T14:01:16;5.00;;;3.03;;
48911;SDS011;34722;52.108;5.044;2023-07-13T14:03:50;5.57;;;3.13;;
48911;SDS011;34722;52.108;5.044;2023-07-13T14:06:16;6.47;;;3.22;;
48911;SDS011;34722;52.108;5.044;2023-07-13T14:08:43;5.82;;;3.35;;
48911;SDS011;34722;52.108;5.044;2023-07-13T14:11:12;5.38;;;3.17;;
48911;SDS011;34722;52.108;5.044;2023-07-13T14:13:45;6.35;;;2.90;;
48911;SDS011;34722;52.108;5.044;2023-07-13T14:16:18;5.80;;;3.03;;
48911;SDS011;34722;52.108;5.044;2023-07-13T14:19:04;9.35;;;4.43;;
48911;SDS011;34722;52.108;5.044;2023-07-13T14:21:30;7.85;;;2.75;;
48911;SDS011;34722;52.108;5.044;2023-07-13T14:23:56;12.55;;;3.00;;
48911;SDS011;34722;52.108;5.044;2023-07-13T14:26:23;5.95;;;2.80;;
48911;SDS011;34722;52.108;5.044;2023-07-13T14:28:55;4.60;;;3.03;;
48911;SDS011;34722;52.108;5.044;2023-07-13T14:31:25;5.70;;;3.33;;
48911;SDS011;34722;52.108;5.044;2023-07-13T14:33:56;6.45;;;3.45;;
48911;SDS011;34722;52.108;5.044;2023-07-13T14:36:32;10.38;;;4.32;;
48911;SDS011;34722;52.108;5.044;2023-07-13T14:39:24;3.97;;;2.70;;
48911;SDS011;34722;52.108;5.044;2023-07-13T14:41:51;8.02;;;2.90;;
48911;SDS011;34722;52.108;5.044;2023-07-13T14:44:23;7.78;;;3.20;;
48911;SDS011;34722;52.108;5.044;2023-07-13T14:46:51;6.13;;;2.67;;
48911;SDS011;34722;52.108;5.044;2023-07-13T14:49:25;5.25;;;2.67;;
48911;SDS011;34722;52.108;5.044;2023-07-13T14:52:01;5.78;;;3.08;;
48911;SDS011;34722;52.108;5.044;2023-07-13T14:54:45;2.45;;;1.98;;
48911;SDS011;34722;52.108;5.044;2023-07-13T14:57:16;5.90;;;2.33;;
48911;SDS011;34722;52.108;5.044;2023-07-13T14:59:47;5.18;;;2.53;;
48911;SDS011;34722;52.108;5.044;2023-07-13T15:02:32;4.72;;;2.30;;
48911;SDS011;34722;52.108;5.044;2023-07-13T15:04:59;4.35;;;2.47;;
48911;SDS011;34722;52.108;5.044;2023-07-13T15:07:25;5.05;;;2.75;;
48911;SDS011;34722;52.108;5.044;2023-07-13T15:09:51;5.00;;;2.45;;
48911;SDS011;34722;52.108;5.044;2023-07-13T15:12:17;3.63;;;2.60;;
48911;SDS011;34722;52.108;5.044;2023-07-13T15:14:43;10.40;;;3.25;;
48911;SDS011;34722;52.108;5.044;2023-07-13T15:17:27;5.65;;;2.28;;
48911;SDS011;34722;52.108;5.044;2023-07-13T15:20:49;3.10;;;2.30;;
48911;SDS011;34722;52.108;5.044;2023-07-13T15:22:51;6.93;;;2.10;;
48911;SDS011;34722;52.108;5.044;2023-07-13T15:25:28;6.55;;;2.55;;
48911;SDS011;34722;52.108;5.044;2023-07-13T15:27:56;6.07;;;2.88;;
48911;SDS011;34722;52.108;5.044;2023-07-13T15:30:26;3.88;;;2.00;;
48911;SDS011;34722;52.108;5.044;2023-07-13T15:32:55;4.50;;;2.22;;
48911;SDS011;34722;52.108;5.044;2023-07-13T15:35:27;5.55;;;2.17;;
48911;SDS011;34722;52.108;5.044;2023-07-13T15:37:56;7.60;;;2.58;;
48911;SDS011;34722;52.108;5.044;2023-07-13T15:40:23;7.15;;;2.55;;
48911;SDS011;34722;52.108;5.044;2023-07-13T15:42:50;6.20;;;2.70;;
48911;SDS011;34722;52.108;5.044;2023-07-13T15:45:18;3.03;;;2.05;;
48911;SDS011;34722;52.108;5.044;2023-07-13T15:47:46;3.30;;;2.20;;
48911;SDS011;34722;52.108;5.044;2023-07-13T15:50:14;4.05;;;2.25;;
48911;SDS011;34722;52.108;5.044;2023-07-13T15:52:43;6.03;;;2.53;;
48911;SDS011;34722;52.108;5.044;2023-07-13T15:57:52;4.38;;;2.30;;
48911;SDS011;34722;52.108;5.044;2023-07-13T16:00:25;4.95;;;2.55;;
48911;SDS011;34722;52.108;5.044;2023-07-13T16:02:52;5.38;;;2.53;;
48911;SDS011;34722;52.108;5.044;2023-07-13T16:05:19;4.47;;;2.65;;
48911;SDS011;34722;52.108;5.044;2023-07-13T16:07:47;4.97;;;2.20;;
48911;SDS011;34722;52.108;5.044;2023-07-13T16:10:16;5.22;;;2.47;;
48911;SDS011;34722;52.108;5.044;2023-07-13T16:12:51;3.03;;;1.95;;
48911;SDS011;34722;52.108;5.044;2023-07-13T16:15:18;6.10;;;2.67;;
48911;SDS011;34722;52.108;5.044;2023-07-13T16:17:45;4.20;;;2.20;;
48911;SDS011;34722;52.108;5.044;2023-07-13T16:20:13;6.40;;;1.98;;
48911;SDS011;34722;52.108;5.044;2023-07-13T16:22:40;7.75;;;2.47;;
48911;SDS011;34722;52.108;5.044;2023-07-13T16:25:18;10.05;;;3.13;;
48911;SDS011;34722;52.108;5.044;2023-07-13T16:27:49;6.10;;;2.63;;
48911;SDS011;34722;52.108;5.044;2023-07-13T16:30:23;5.97;;;2.58;;
48911;SDS011;34722;52.108;5.044;2023-07-13T16:32:52;4.32;;;2.45;;
48911;SDS011;34722;52.108;5.044;2023-07-13T16:35:19;5.20;;;2.10;;
48911;SDS011;34722;52.108;5.044;2023-07-13T16:40:20;2.40;;;1.77;;
48911;SDS011;34722;52.108;5.044;2023-07-13T16:42:50;7.65;;;2.10;;
48911;SDS011;34722;52.108;5.044;2023-07-13T16:45:21;3.65;;;2.10;;
48911;SDS011;34722;52.108;5.044;2023-07-13T16:47:51;5.05;;;2.30;;
48911;SDS011;34722;52.108;5.044;2023-07-13T16:50:19;4.32;;;2.40;;
48911;SDS011;34722;52.108;5.044;2023-07-13T16:52:51;4.60;;;2.38;;
48911;SDS011;34722;52.108;5.044;2023-07-13T16:55:19;4.63;;;2.20;;
48911;SDS011;34722;52.108;5.044;2023-07-13T16:57:52;3.00;;;1.90;;
48911;SDS011;34722;52.108;5.044;2023-07-13T17:00:21;2.55;;;2.15;;
48911;SDS011;34722;52.108;5.044;2023-07-13T17:02:55;4.88;;;2.10;;
48911;SDS011;34722;52.108;5.044;2023-07-13T17:05:32;9.25;;;2.85;;
48911;SDS011;34722;52.108;5.044;2023-07-13T17:08:01;5.15;;;2.53;;
48911;SDS011;34722;52.108;5.044;2023-07-13T17:10:34;6.25;;;2.40;;
48911;SDS011;34722;52.108;5.044;2023-07-13T17:13:01;3.97;;;2.58;;
48911;SDS011;34722;52.108;5.044;2023-07-13T17:15:27;3.20;;;2.22;;
48911;SDS011;34722;52.108;5.044;2023-07-13T17:17:57;4.00;;;2.50;;
48911;SDS011;34722;52.108;5.044;2023-07-13T17:23:02;3.90;;;2.70;;
48911;SDS011;34722;52.108;5.044;2023-07-13T17:25:28;5.68;;;2.75;;
48911;SDS011;34722;52.108;5.044;2023-07-13T17:27:55;6.10;;;2.80;;
48911;SDS011;34722;52.108;5.044;2023-07-13T17:30:22;6.10;;;2.60;;
48911;SDS011;34722;52.108;5.044;2023-07-13T17:32:49;5.70;;;2.40;;
48911;SDS011;34722;52.108;5.044;2023-07-13T17:37:59;6.90;;;2.63;;
48911;SDS011;34722;52.108;5.044;2023-07-13T17:40:27;3.60;;;2.58;;
48911;SDS011;34722;52.108;5.044;2023-07-13T17:42:53;3.95;;;2.75;;
48911;SDS011;34722;52.108;5.044;2023-07-13T17:45:26;7.28;;;2.70;;
48911;SDS011;34722;52.108;5.044;2023-07-13T17:47:54;7.00;;;2.70;;
48911;SDS011;34722;52.108;5.044;2023-07-13T17:50:34;6.60;;;3.10;;
48911;SDS011;34722;52.108;5.044;2023-07-13T17:53:03;3.28;;;2.20;;
48911;SDS011;34722;52.108;5.044;2023-07-13T17:55:41;7.43;;;3.17;;
48911;SDS011;34722;52.108;5.044;2023-07-13T17:58:10;5.68;;;2.45;;
48911;SDS011;34722;52.108;5.044;2023-07-13T18:00:37;7.45;;;3.88;;
48911;SDS011;34722;52.108;5.044;2023-07-13T18:05:53;4.95;;;2.33;;
48911;SDS011;34722;52.108;5.044;2023-07-13T18:08:26;10.25;;;2.53;;
48911;SDS011;34722;52.108;5.044;2023-07-13T18:10:54;10.13;;;4.07;;
48911;SDS011;34722;52.108;5.044;2023-07-13T18:13:22;5.30;;;2.38;;
48911;SDS011;34722;52.108;5.044;2023-07-13T18:15:49;6.40;;;2.65;;
48911;SDS011;34722;52.108;5.044;2023-07-13T18:18:18;3.78;;;2.42;;
48911;SDS011;34722;52.108;5.044;2023-07-13T18:20:46;6.43;;;2.28;;
48911;SDS011;34722;52.108;5.044;2023-07-13T18:23:19;3.88;;;2.38;;
48911;SDS011;34722;52.108;5.044;2023-07-13T18:25:47;4.55;;;2.17;;
48911;SDS011;34722;52.108;5.044;2023-07-13T18:28:15;3.95;;;2.00;;
48911;SDS011;34722;52.108;5.044;2023-07-13T18:30:43;4.60;;;2.30;;
48911;SDS011;34722;52.108;5.044;2023-07-13T18:33:28;4.95;;;2.60;;
48911;SDS011;34722;52.108;5.044;2023-07-13T18:35:59;3.55;;;2.78;;
48911;SDS011;34722;52.108;5.044;2023-07-13T18:38:27;6.50;;;2.83;;
48911;SDS011;34722;52.108;5.044;2023-07-13T18:40:54;4.15;;;2.08;;
48911;SDS011;34722;52.108;5.044;2023-07-13T18:43:21;6.40;;;2.55;;
48911;SDS011;34722;52.108;5.044;2023-07-13T18:45:50;6.90;;;2.85;;
48911;SDS011;34722;52.108;5.044;2023-07-13T18:48:27;9.98;;;2.88;;
48911;SDS011;34722;52.108;5.044;2023-07-13T18:50:57;6.68;;;3.35;;
48911;SDS011;34722;52.108;5.044;2023-07-13T18:53:23;5.63;;;2.97;;
48911;SDS011;34722;52.108;5.044;2023-07-13T18:55:51;6.70;;;2.85;;
48911;SDS011;34722;52.108;5.044;2023-07-13T18:58:17;5.78;;;2.00;;
48911;SDS011;34722;52.108;5.044;2023-07-13T19:00:45;10.18;;;2.55;;
48911;SDS011;34722;52.108;5.044;2023-07-13T19:03:16;7.22;;;2.30;;
48911;SDS011;34722;52.108;5.044;2023-07-13T19:05:43;9.88;;;2.90;;
48911;SDS011;34722;52.108;5.044;2023-07-13T19:08:13;3.75;;;2.00;;
48911;SDS011;34722;52.108;5.044;2023-07-13T19:10:44;4.32;;;2.17;;
48911;SDS011;34722;52.108;5.044;2023-07-13T19:13:14;6.95;;;2.50;;
48911;SDS011;34722;52.108;5.044;2023-07-13T19:15:44;4.32;;;2.53;;
48911;SDS011;34722;52.108;5.044;2023-07-13T19:18:11;8.90;;;3.30;;
48911;SDS011;34722;52.108;5.044;2023-07-13T19:20:39;5.43;;;2.80;;
48911;SDS011;34722;52.108;5.044;2023-07-13T19:23:20;9.20;;;3.22;;
48911;SDS011;34722;52.108;5.044;2023-07-13T19:26:03;4.22;;;2.95;;
48911;SDS011;34722;52.108;5.044;2023-07-13T19:33:44;7.15;;;3.22;;
48911;SDS011;34722;52.108;5.044;2023-07-13T19:36:12;4.20;;;3.28;;
48911;SDS011;34722;52.108;5.044;2023-07-13T19:38:39;4.05;;;2.88;;
48911;SDS011;34722;52.108;5.044;2023-07-13T19:41:19;10.07;;;2.88;;
48911;SDS011;34722;52.108;5.044;2023-07-13T19:43:46;4.95;;;2.88;;
48911;SDS011;34722;52.108;5.044;2023-07-13T19:48:58;5.60;;;3.10;;
48911;SDS011;34722;52.108;5.044;2023-07-13T19:51:27;6.32;;;2.85;;
48911;SDS011;34722;52.108;5.044;2023-07-13T19:54:01;7.82;;;3.13;;
48911;SDS011;34722;52.108;5.044;2023-07-13T19:56:38;6.43;;;3.22;;
48911;SDS011;34722;52.108;5.044;2023-07-13T19:59:41;10.02;;;3.00;;
48911;SDS011;34722;52.108;5.044;2023-07-13T20:02:01;12.27;;;3.90;;
48911;SDS011;34722;52.108;5.044;2023-07-13T20:04:29;8.15;;;3.05;;
48911;SDS011;34722;52.108;5.044;2023-07-13T20:06:55;5.05;;;2.95;;
48911;SDS011;34722;52.108;5.044;2023-07-13T20:09:22;7.63;;;3.85;;
48911;SDS011;34722;52.108;5.044;2023-07-13T20:11:50;5.03;;;2.80;;
48911;SDS011;34722;52.108;5.044;2023-07-13T20:14:20;7.70;;;3.55;;
48911;SDS011;34722;52.108;5.044;2023-07-13T20:16:48;7.63;;;3.72;;
48911;SDS011;34722;52.108;5.044;2023-07-13T20:19:15;6.00;;;3.42;;
48911;SDS011;34722;52.108;5.044;2023-07-13T20:21:49;6.47;;;3.10;;
48911;SDS011;34722;52.108;5.044;2023-07-13T20:24:18;8.65;;;3.85;;
48911;SDS011;34722;52.108;5.044;2023-07-13T20:26:46;9.30;;;3.30;;
48911;SDS011;34722;52.108;5.044;2023-07-13T20:29:12;8.18;;;3.58;;
48911;SDS011;34722;52.108;5.044;2023-07-13T20:31:42;7.18;;;2.95;;
48911;SDS011;34722;52.108;5.044;2023-07-13T20:34:16;8.05;;;3.20;;
48911;SDS011;34722;52.108;5.044;2023-07-13T20:36:51;8.52;;;2.95;;
48911;SDS011;34722;52.108;5.044;2023-07-13T20:39:19;5.57;;;2.80;;
48911;SDS011;34722;52.108;5.044;2023-07-13T20:41:45;6.55;;;3.80;;
48911;SDS011;34722;52.108;5.044;2023-07-13T20:44:11;5.97;;;3.10;;
48911;SDS011;34722;52.108;5.044;2023-07-13T20:46:37;12.05;;;3.45;;
48911;SDS011;34722;52.108;5.044;2023-07-13T20:49:14;13.75;;;3.35;;
48911;SDS011;34722;52.108;5.044;2023-07-13T20:51:41;6.22;;;2.92;;
48911;SDS011;34722;52.108;5.044;2023-07-13T20:54:13;7.13;;;3.13;;
48911;SDS011;34722;52.108;5.044;2023-07-13T20:56:39;6.47;;;2.72;;
48911;SDS011;34722;52.108;5.044;2023-07-13T20:59:06;8.20;;;3.25;;
48911;SDS011;34722;52.108;5.044;2023-07-13T21:01:32;6.25;;;2.38;;
48911;SDS011;34722;52.108;5.044;2023-07-13T21:04:00;9.30;;;2.95;;
48911;SDS011;34722;52.108;5.044;2023-07-13T21:06:28;6.05;;;2.47;;
48911;SDS011;34722;52.108;5.044;2023-07-13T21:08:55;7.97;;;2.50;;
48911;SDS011;34722;52.108;5.044;2023-07-13T21:11:24;7.72;;;2.63;;
48911;SDS011;34722;52.108;5.044;2023-07-13T21:13:50;5.93;;;2.58;;
48911;SDS011;34722;52.108;5.044;2023-07-13T21:18:47;5.90;;;2.60;;
48911;SDS011;34722;52.108;5.044;2023-07-13T21:21:15;5.97;;;2.25;;
48911;SDS011;34722;52.108;5.044;2023-07-13T21:23:44;4.38;;;2.65;;
48911;SDS011;34722;52.108;5.044;2023-07-13T21:26:10;9.30;;;3.95;;
48911;SDS011;34722;52.108;5.044;2023-07-13T21:28:37;4.18;;;2.15;;
48911;SDS011;34722;52.108;5.044;2023-07-13T21:31:07;6.28;;;2.03;;
48911;SDS011;34722;52.108;5.044;2023-07-13T21:33:43;11.52;;;2.67;;
48911;SDS011;34722;52.108;5.044;2023-07-13T21:36:09;4.00;;;2.42;;
48911;SDS011;34722;52.108;5.044;2023-07-13T21:38:37;8.45;;;2.33;;
48911;SDS011;34722;52.108;5.044;2023-07-13T21:41:24;6.43;;;2.53;;
48911;SDS011;34722;52.108;5.044;2023-07-13T21:43:52;8.25;;;2.58;;
48911;SDS011;34722;52.108;5.044;2023-07-13T21:46:22;6.95;;;2.42;;
48911;SDS011;34722;52.108;5.044;2023-07-13T21:48:49;7.78;;;3.08;;
48911;SDS011;34722;52.108;5.044;2023-07-13T21:51:25;7.50;;;3.00;;
48911;SDS011;34722;52.108;5.044;2023-07-13T21:53:53;4.60;;;2.83;;
48911;SDS011;34722;52.108;5.044;2023-07-13T21:56:20;5.68;;;2.30;;
48911;SDS011;34722;52.108;5.044;2023-07-13T21:58:47;6.85;;;2.58;;
48911;SDS011;34722;52.108;5.044;2023-07-13T22:03:45;7.93;;;2.67;;
48911;SDS011;34722;52.108;5.044;2023-07-13T22:06:21;8.18;;;2.40;;
48911;SDS011;34722;52.108;5.044;2023-07-13T22:08:49;7.47;;;2.60;;
48911;SDS011;34722;52.108;5.044;2023-07-13T22:11:19;6.78;;;3.38;;
48911;SDS011;34722;52.108;5.044;2023-07-13T22:13:46;6.65;;;2.70;;
48911;SDS011;34722;52.108;5.044;2023-07-13T22:16:17;9.50;;;2.58;;
48911;SDS011;34722;52.108;5.044;2023-07-13T22:18:52;5.05;;;2.50;;
48911;SDS011;34722;52.108;5.044;2023-07-13T22:21:21;7.20;;;2.67;;
48911;SDS011;34722;52.108;5.044;2023-07-13T22:23:47;5.63;;;2.83;;
48911;SDS011;34722;52.108;5.044;2023-07-13T22:26:21;6.85;;;4.20;;
48911;SDS011;34722;52.108;5.044;2023-07-13T22:28:49;5.32;;;3.28;;
48911;SDS011;34722;52.108;5.044;2023-07-13T22:31:23;4.15;;;2.78;;
48911;SDS011;34722;52.108;5.044;2023-07-13T22:33:53;7.03;;;3.28;;
48911;SDS011;34722;52.108;5.044;2023-07-13T22:36:19;11.75;;;3.88;;
48911;SDS011;34722;52.108;5.044;2023-07-13T22:38:45;7.00;;;3.28;;
48911;SDS011;34722;52.108;5.044;2023-07-13T22:41:13;6.70;;;3.33;;
48911;SDS011;34722;52.108;5.044;2023-07-13T22:43:43;7.85;;;2.90;;
48911;SDS011;34722;52.108;5.044;2023-07-13T22:46:23;11.38;;;3.35;;
48911;SDS011;34722;52.108;5.044;2023-07-13T22:49:00;5.18;;;2.90;;
48911;SDS011;34722;52.108;5.044;2023-07-13T22:51:40;6.05;;;3.38;;
48911;SDS011;34722;52.108;5.044;2023-07-13T22:54:10;7.60;;;3.53;;
48911;SDS011;34722;52.108;5.044;2023-07-13T22:56:37;7.70;;;4.97;;
48911;SDS011;34722;52.108;5.044;2023-07-13T22:59:04;5.85;;;3.05;;
48911;SDS011;34722;52.108;5.044;2023-07-13T23:01:32;7.28;;;3.33;;
48911;SDS011;34722;52.108;5.044;2023-07-13T23:04:14;6.60;;;3.08;;
48911;SDS011;34722;52.108;5.044;2023-07-13T23:06:55;6.15;;;3.10;;
48911;SDS011;34722;52.108;5.044;2023-07-13T23:09:23;7.00;;;3.60;;
48911;SDS011;34722;52.108;5.044;2023-07-13T23:11:51;5.15;;;3.28;;
48911;SDS011;34722;52.108;5.044;2023-07-13T23:14:17;6.45;;;3.08;;
48911;SDS011;34722;52.108;5.044;2023-07-13T23:16:43;6.82;;;3.05;;
48911;SDS011;34722;52.108;5.044;2023-07-13T23:19:26;3.95;;;2.55;;
48911;SDS011;34722;52.108;5.044;2023-07-13T23:21:57;5.05;;;2.75;;
48911;SDS011;34722;52.108;5.044;2023-07-13T23:24:24;10.30;;;3.25;;
48911;SDS011;34722;52.108;5.044;2023-07-13T23:26:53;7.43;;;3.28;;
48911;SDS011;34722;52.108;5.044;2023-07-13T23:29:20;11.27;;;4.22;;
48911;SDS011;34722;52.108;5.044;2023-07-13T23:31:45;5.68;;;3.40;;
48911;SDS011;34722;52.108;5.044;2023-07-13T23:34:13;5.20;;;2.97;;
48911;SDS011;34722;52.108;5.044;2023-07-13T23:36:40;7.80;;;3.60;;
48911;SDS011;34722;52.108;5.044;2023-07-13T23:39:14;7.05;;;3.20;;
48911;SDS011;34722;52.108;5.044;2023-07-13T23:41:44;6.45;;;3.55;;
48911;SDS011;34722;52.108;5.044;2023-07-13T23:44:13;8.35;;;3.58;;
48911;SDS011;34722;52.108;5.044;2023-07-13T23:46:44;7.07;;;4.05;;
48911;SDS011;34722;52.108;5.044;2023-07-13T23:49:30;11.93;;;5.05;;
48911;SDS011;34722;52.108;5.044;2023-07-13T23:51:58;8.70;;;3.42;;
48911;SDS011;34722;52.108;5.044;2023-07-13T23:54:36;9.73;;;4.40;;
48911;SDS011;34722;52.108;5.044;2023-07-13T23:57:02;9.35;;;4.13;;
48911;SDS011;34722;52.108;5.044;2023-07-13T23:59:28;5.85;;;2.95;;
